sensor_id;sensor_type;location;lat;lon;timestamp;temperature;humidity
46159;DHT22;31888;44.512;26.104;2023-07-16T00:00:20;22.60;99.90
46159;DHT22;31888;44.512;26.104;2023-07-16T00:02:48;22.50;99.90
46159;DHT22;31888;44.512;26.104;2023-07-16T00:05:13;22.40;99.90
46159;DHT22;31888;44.512;26.104;2023-07-16T00:07:38;22.30;99.90
46159;DHT22;31888;44.512;26.104;2023-07-16T00:10:02;22.30;99.90
46159;DHT22;31888;44.512;26.104;2023-07-16T00:12:26;22.20;99.90
46159;DHT22;31888;44.512;26.104;2023-07-16T00:14:50;22.20;99.90
46159;DHT22;31888;44.512;26.104;2023-07-16T00:17:14;22.20;99.90
46159;DHT22;31888;44.512;26.104;2023-07-16T00:19:39;22.10;99.90
46159;DHT22;31888;44.512;26.104;2023-07-16T00:22:04;22.00;99.90
46159;DHT22;31888;44.512;26.104;2023-07-16T00:24:28;22.10;99.90
46159;DHT22;31888;44.512;26.104;2023-07-16T00:26:52;22.00;99.90
46159;DHT22;31888;44.512;26.104;2023-07-16T00:29:16;21.90;99.90
46159;DHT22;31888;44.512;26.104;2023-07-16T00:31:40;21.90;99.90
46159;DHT22;31888;44.512;26.104;2023-07-16T00:34:04;21.80;99.90
46159;DHT22;31888;44.512;26.104;2023-07-16T00:36:27;21.80;99.90
46159;DHT22;31888;44.512;26.104;2023-07-16T00:38:53;21.80;99.90
46159;DHT22;31888;44.512;26.104;2023-07-16T00:41:16;21.80;99.90
46159;DHT22;31888;44.512;26.104;2023-07-16T00:43:40;21.70;99.90
46159;DHT22;31888;44.512;26.104;2023-07-16T00:46:04;21.70;99.90
46159;DHT22;31888;44.512;26.104;2023-07-16T00:48:28;21.70;99.90
46159;DHT22;31888;44.512;26.104;2023-07-16T00:50:53;21.70;99.90
46159;DHT22;31888;44.512;26.104;2023-07-16T00:53:17;21.60;99.90
46159;DHT22;31888;44.512;26.104;2023-07-16T00:55:43;21.50;99.90
46159;DHT22;31888;44.512;26.104;2023-07-16T00:58:07;21.40;99.90
46159;DHT22;31888;44.512;26.104;2023-07-16T01:00:31;21.40;99.90
46159;DHT22;31888;44.512;26.104;2023-07-16T01:02:55;21.30;99.90
46159;DHT22;31888;44.512;26.104;2023-07-16T01:05:19;21.20;99.90
46159;DHT22;31888;44.512;26.104;2023-07-16T01:07:49;21.20;99.90
46159;DHT22;31888;44.512;26.104;2023-07-16T01:10:17;21.20;99.90
46159;DHT22;31888;44.512;26.104;2023-07-16T01:12:42;21.10;99.90
46159;DHT22;31888;44.512;26.104;2023-07-16T01:15:07;21.20;99.90
46159;DHT22;31888;44.512;26.104;2023-07-16T01:17:33;21.10;99.90
46159;DHT22;31888;44.512;26.104;2023-07-16T01:19:57;21.10;99.90
46159;DHT22;31888;44.512;26.104;2023-07-16T01:22:52;21.00;99.90
46159;DHT22;31888;44.512;26.104;2023-07-16T01:25:33;21.00;99.90
46159;DHT22;31888;44.512;26.104;2023-07-16T01:28:11;21.00;99.90
46159;DHT22;31888;44.512;26.104;2023-07-16T01:30:41;20.90;99.90
46159;DHT22;31888;44.512;26.104;2023-07-16T01:33:08;20.90;99.90
46159;DHT22;31888;44.512;26.104;2023-07-16T01:35:33;20.90;99.90
46159;DHT22;31888;44.512;26.104;2023-07-16T01:37:58;20.80;99.90
46159;DHT22;31888;44.512;26.104;2023-07-16T01:40:22;20.80;99.90
46159;DHT22;31888;44.512;26.104;2023-07-16T01:42:46;20.80;99.90
46159;DHT22;31888;44.512;26.104;2023-07-16T01:45:10;20.70;99.90
46159;DHT22;31888;44.512;26.104;2023-07-16T01:47:39;20.80;99.90
46159;DHT22;31888;44.512;26.104;2023-07-16T01:50:06;20.70;99.90
46159;DHT22;31888;44.512;26.104;2023-07-16T01:52:30;20.70;99.90
46159;DHT22;31888;44.512;26.104;2023-07-16T01:54:54;20.60;99.90
46159;DHT22;31888;44.512;26.104;2023-07-16T01:57:18;20.60;99.90
46159;DHT22;31888;44.512;26.104;2023-07-16T01:59:42;20.50;99.90
46159;DHT22;31888;44.512;26.104;2023-07-16T02:02:08;20.50;99.90
46159;DHT22;31888;44.512;26.104;2023-07-16T02:04:34;20.50;99.90
46159;DHT22;31888;44.512;26.104;2023-07-16T02:06:58;20.50;99.90
46159;DHT22;31888;44.512;26.104;2023-07-16T02:09:22;20.40;99.90
46159;DHT22;31888;44.512;26.104;2023-07-16T02:11:45;20.50;99.90
46159;DHT22;31888;44.512;26.104;2023-07-16T02:14:09;20.50;99.90
46159;DHT22;31888;44.512;26.104;2023-07-16T02:16:33;20.50;99.90
46159;DHT22;31888;44.512;26.104;2023-07-16T02:18:57;20.40;99.90
46159;DHT22;31888;44.512;26.104;2023-07-16T02:21:23;20.40;99.90
46159;DHT22;31888;44.512;26.104;2023-07-16T02:23:46;20.50;99.90
46159;DHT22;31888;44.512;26.104;2023-07-16T02:26:10;20.50;99.90
46159;DHT22;31888;44.512;26.104;2023-07-16T02:28:37;20.50;99.90
46159;DHT22;31888;44.512;26.104;2023-07-16T02:31:03;20.40;99.90
46159;DHT22;31888;44.512;26.104;2023-07-16T02:33:27;20.30;99.90
46159;DHT22;31888;44.512;26.104;2023-07-16T02:35:51;20.40;99.90
46159;DHT22;31888;44.512;26.104;2023-07-16T02:38:18;20.40;99.90
46159;DHT22;31888;44.512;26.104;2023-07-16T02:40:43;20.40;99.90
46159;DHT22;31888;44.512;26.104;2023-07-16T02:43:07;20.40;99.90
46159;DHT22;31888;44.512;26.104;2023-07-16T02:45:33;20.30;99.90
46159;DHT22;31888;44.512;26.104;2023-07-16T02:47:57;20.30;99.90
46159;DHT22;31888;44.512;26.104;2023-07-16T02:50:21;20.30;99.90
46159;DHT22;31888;44.512;26.104;2023-07-16T02:52:44;20.30;99.90
46159;DHT22;31888;44.512;26.104;2023-07-16T02:55:10;20.40;99.90
46159;DHT22;31888;44.512;26.104;2023-07-16T02:57:34;20.40;99.90
46159;DHT22;31888;44.512;26.104;2023-07-16T02:59:58;20.40;99.90
46159;DHT22;31888;44.512;26.104;2023-07-16T03:02:22;20.40;99.90
46159;DHT22;31888;44.512;26.104;2023-07-16T03:04:46;20.50;99.90
46159;DHT22;31888;44.512;26.104;2023-07-16T03:07:10;20.60;99.90
46159;DHT22;31888;44.512;26.104;2023-07-16T03:09:34;20.70;99.90
46159;DHT22;31888;44.512;26.104;2023-07-16T03:12:01;20.70;99.90
46159;DHT22;31888;44.512;26.104;2023-07-16T03:14:25;20.70;99.90
46159;DHT22;31888;44.512;26.104;2023-07-16T03:16:49;20.80;99.90
46159;DHT22;31888;44.512;26.104;2023-07-16T03:19:13;20.90;99.90
46159;DHT22;31888;44.512;26.104;2023-07-16T03:21:36;20.90;99.90
46159;DHT22;31888;44.512;26.104;2023-07-16T03:24:00;21.10;99.90
46159;DHT22;31888;44.512;26.104;2023-07-16T03:26:24;21.20;99.90
46159;DHT22;31888;44.512;26.104;2023-07-16T03:28:49;21.40;99.90
46159;DHT22;31888;44.512;26.104;2023-07-16T03:31:13;21.60;99.90
46159;DHT22;31888;44.512;26.104;2023-07-16T03:33:39;21.80;99.90
46159;DHT22;31888;44.512;26.104;2023-07-16T03:36:03;22.10;99.90
46159;DHT22;31888;44.512;26.104;2023-07-16T03:38:27;22.20;99.90
46159;DHT22;31888;44.512;26.104;2023-07-16T03:40:51;22.40;99.90
46159;DHT22;31888;44.512;26.104;2023-07-16T03:43:15;22.60;99.90
46159;DHT22;31888;44.512;26.104;2023-07-16T03:45:41;22.80;99.90
46159;DHT22;31888;44.512;26.104;2023-07-16T03:48:06;23.00;99.90
46159;DHT22;31888;44.512;26.104;2023-07-16T03:50:30;23.20;99.90
46159;DHT22;31888;44.512;26.104;2023-07-16T03:52:54;23.50;99.90
46159;DHT22;31888;44.512;26.104;2023-07-16T03:55:18;23.80;99.90
46159;DHT22;31888;44.512;26.104;2023-07-16T03:57:42;24.00;99.90
46159;DHT22;31888;44.512;26.104;2023-07-16T04:00:07;24.20;99.90
46159;DHT22;31888;44.512;26.104;2023-07-16T04:02:43;24.40;99.90
46159;DHT22;31888;44.512;26.104;2023-07-16T04:05:12;24.70;99.90
46159;DHT22;31888;44.512;26.104;2023-07-16T04:07:36;24.60;99.90
46159;DHT22;31888;44.512;26.104;2023-07-16T04:09:59;24.80;99.90
46159;DHT22;31888;44.512;26.104;2023-07-16T04:12:23;25.40;99.10
46159;DHT22;31888;44.512;26.104;2023-07-16T04:14:47;25.70;98.40
46159;DHT22;31888;44.512;26.104;2023-07-16T04:17:11;25.80;98.00
46159;DHT22;31888;44.512;26.104;2023-07-16T04:19:37;25.50;98.00
46159;DHT22;31888;44.512;26.104;2023-07-16T04:22:01;25.60;97.90
46159;DHT22;31888;44.512;26.104;2023-07-16T04:24:25;25.70;97.70
46159;DHT22;31888;44.512;26.104;2023-07-16T04:26:50;25.40;97.70
46159;DHT22;31888;44.512;26.104;2023-07-16T04:29:13;25.70;97.60
46159;DHT22;31888;44.512;26.104;2023-07-16T04:31:38;26.10;97.30
46159;DHT22;31888;44.512;26.104;2023-07-16T04:34:02;25.80;97.10
46159;DHT22;31888;44.512;26.104;2023-07-16T04:36:27;26.50;96.70
46159;DHT22;31888;44.512;26.104;2023-07-16T04:38:51;26.40;95.90
46159;DHT22;31888;44.512;26.104;2023-07-16T04:41:16;26.70;95.70
46159;DHT22;31888;44.512;26.104;2023-07-16T04:43:40;27.30;94.90
46159;DHT22;31888;44.512;26.104;2023-07-16T04:46:04;27.20;94.80
46159;DHT22;31888;44.512;26.104;2023-07-16T04:48:28;28.10;93.90
46159;DHT22;31888;44.512;26.104;2023-07-16T04:50:51;28.20;93.20
46159;DHT22;31888;44.512;26.104;2023-07-16T04:53:17;28.50;92.50
46159;DHT22;31888;44.512;26.104;2023-07-16T04:55:41;28.50;92.20
46159;DHT22;31888;44.512;26.104;2023-07-16T04:58:05;28.00;92.30
46159;DHT22;31888;44.512;26.104;2023-07-16T05:00:29;28.20;92.60
46159;DHT22;31888;44.512;26.104;2023-07-16T05:02:54;28.90;91.60
46159;DHT22;31888;44.512;26.104;2023-07-16T05:05:18;29.60;91.40
46159;DHT22;31888;44.512;26.104;2023-07-16T05:07:42;29.90;90.40
46159;DHT22;31888;44.512;26.104;2023-07-16T05:10:08;30.60;89.20
46159;DHT22;31888;44.512;26.104;2023-07-16T05:12:32;30.30;88.10
46159;DHT22;31888;44.512;26.104;2023-07-16T05:14:56;30.90;87.70
46159;DHT22;31888;44.512;26.104;2023-07-16T05:17:20;30.70;86.70
46159;DHT22;31888;44.512;26.104;2023-07-16T05:19:44;31.20;85.90
46159;DHT22;31888;44.512;26.104;2023-07-16T05:22:08;31.40;84.60
46159;DHT22;31888;44.512;26.104;2023-07-16T05:24:33;30.80;85.40
46159;DHT22;31888;44.512;26.104;2023-07-16T05:27:01;31.10;84.70
46159;DHT22;31888;44.512;26.104;2023-07-16T05:29:25;31.10;84.40
46159;DHT22;31888;44.512;26.104;2023-07-16T05:31:49;31.30;83.80
46159;DHT22;31888;44.512;26.104;2023-07-16T05:34:13;31.40;84.40
46159;DHT22;31888;44.512;26.104;2023-07-16T05:36:37;31.60;83.60
46159;DHT22;31888;44.512;26.104;2023-07-16T05:39:01;32.20;82.10
46159;DHT22;31888;44.512;26.104;2023-07-16T05:41:24;32.40;81.10
46159;DHT22;31888;44.512;26.104;2023-07-16T05:43:50;32.70;81.50
46159;DHT22;31888;44.512;26.104;2023-07-16T05:46:13;33.80;79.00
46159;DHT22;31888;44.512;26.104;2023-07-16T05:48:38;34.10;77.80
46159;DHT22;31888;44.512;26.104;2023-07-16T05:51:02;33.90;77.70
46159;DHT22;31888;44.512;26.104;2023-07-16T05:53:26;33.50;77.80
46159;DHT22;31888;44.512;26.104;2023-07-16T05:55:49;33.40;77.40
46159;DHT22;31888;44.512;26.104;2023-07-16T05:58:14;33.20;77.60
46159;DHT22;31888;44.512;26.104;2023-07-16T06:00:39;33.30;77.80
46159;DHT22;31888;44.512;26.104;2023-07-16T06:03:03;33.00;78.10
46159;DHT22;31888;44.512;26.104;2023-07-16T06:05:27;33.20;77.90
46159;DHT22;31888;44.512;26.104;2023-07-16T06:07:54;32.80;78.10
46159;DHT22;31888;44.512;26.104;2023-07-16T06:10:18;33.50;77.90
46159;DHT22;31888;44.512;26.104;2023-07-16T06:12:42;34.10;76.00
46159;DHT22;31888;44.512;26.104;2023-07-16T06:15:07;35.20;74.80
46159;DHT22;31888;44.512;26.104;2023-07-16T06:17:32;35.40;74.10
46159;DHT22;31888;44.512;26.104;2023-07-16T06:19:56;35.90;73.10
46159;DHT22;31888;44.512;26.104;2023-07-16T06:22:21;36.90;71.70
46159;DHT22;31888;44.512;26.104;2023-07-16T06:24:45;38.00;69.70
46159;DHT22;31888;44.512;26.104;2023-07-16T06:27:09;37.80;68.70
46159;DHT22;31888;44.512;26.104;2023-07-16T06:29:33;37.40;68.90
46159;DHT22;31888;44.512;26.104;2023-07-16T06:31:57;37.60;68.50
46159;DHT22;31888;44.512;26.104;2023-07-16T06:34:23;37.90;67.90
46159;DHT22;31888;44.512;26.104;2023-07-16T06:36:46;37.80;67.90
46159;DHT22;31888;44.512;26.104;2023-07-16T06:39:10;38.50;66.90
46159;DHT22;31888;44.512;26.104;2023-07-16T06:41:34;38.60;66.10
46159;DHT22;31888;44.512;26.104;2023-07-16T06:43:59;39.30;65.10
46159;DHT22;31888;44.512;26.104;2023-07-16T06:46:23;37.80;65.80
46159;DHT22;31888;44.512;26.104;2023-07-16T06:48:47;38.00;66.00
46159;DHT22;31888;44.512;26.104;2023-07-16T06:51:12;38.00;65.20
46159;DHT22;31888;44.512;26.104;2023-07-16T06:53:36;37.60;66.90
46159;DHT22;31888;44.512;26.104;2023-07-16T06:56:00;38.20;66.00
46159;DHT22;31888;44.512;26.104;2023-07-16T06:58:31;38.10;66.00
46159;DHT22;31888;44.512;26.104;2023-07-16T07:00:56;38.60;64.60
46159;DHT22;31888;44.512;26.104;2023-07-16T07:03:20;38.90;64.00
46159;DHT22;31888;44.512;26.104;2023-07-16T07:05:44;38.80;64.20
46159;DHT22;31888;44.512;26.104;2023-07-16T07:08:09;39.00;64.00
46159;DHT22;31888;44.512;26.104;2023-07-16T07:10:33;40.10;62.80
46159;DHT22;31888;44.512;26.104;2023-07-16T07:12:59;38.20;63.40
46159;DHT22;31888;44.512;26.104;2023-07-16T07:15:23;36.90;65.90
46159;DHT22;31888;44.512;26.104;2023-07-16T07:17:47;38.00;64.90
46159;DHT22;31888;44.512;26.104;2023-07-16T07:20:13;38.90;64.40
46159;DHT22;31888;44.512;26.104;2023-07-16T07:22:37;39.20;63.10
46159;DHT22;31888;44.512;26.104;2023-07-16T07:25:03;39.40;62.90
46159;DHT22;31888;44.512;26.104;2023-07-16T07:27:27;39.20;62.40
46159;DHT22;31888;44.512;26.104;2023-07-16T07:29:51;39.60;61.90
46159;DHT22;31888;44.512;26.104;2023-07-16T07:32:15;39.20;62.00
46159;DHT22;31888;44.512;26.104;2023-07-16T07:34:39;40.50;61.50
46159;DHT22;31888;44.512;26.104;2023-07-16T07:37:03;41.70;59.70
46159;DHT22;31888;44.512;26.104;2023-07-16T07:39:27;41.10;59.80
46159;DHT22;31888;44.512;26.104;2023-07-16T07:41:52;40.00;61.40
46159;DHT22;31888;44.512;26.104;2023-07-16T07:44:16;41.40;60.60
46159;DHT22;31888;44.512;26.104;2023-07-16T07:46:39;41.00;59.50
46159;DHT22;31888;44.512;26.104;2023-07-16T07:49:03;40.50;60.60
46159;DHT22;31888;44.512;26.104;2023-07-16T07:51:27;39.20;61.40
46159;DHT22;31888;44.512;26.104;2023-07-16T07:53:51;39.30;61.60
46159;DHT22;31888;44.512;26.104;2023-07-16T07:56:14;39.30;61.20
46159;DHT22;31888;44.512;26.104;2023-07-16T07:58:40;39.70;60.50
46159;DHT22;31888;44.512;26.104;2023-07-16T08:01:05;39.40;60.80
46159;DHT22;31888;44.512;26.104;2023-07-16T08:03:29;38.50;61.40
46159;DHT22;31888;44.512;26.104;2023-07-16T08:05:53;38.50;62.60
46159;DHT22;31888;44.512;26.104;2023-07-16T08:08:16;37.40;63.20
46159;DHT22;31888;44.512;26.104;2023-07-16T08:10:40;38.00;63.00
46159;DHT22;31888;44.512;26.104;2023-07-16T08:13:04;37.40;63.50
46159;DHT22;31888;44.512;26.104;2023-07-16T08:15:29;36.90;64.50
46159;DHT22;31888;44.512;26.104;2023-07-16T08:17:53;37.60;63.90
46159;DHT22;31888;44.512;26.104;2023-07-16T08:20:21;37.80;62.90
46159;DHT22;31888;44.512;26.104;2023-07-16T08:22:45;37.70;63.30
46159;DHT22;31888;44.512;26.104;2023-07-16T08:25:09;37.20;64.50
46159;DHT22;31888;44.512;26.104;2023-07-16T08:27:33;36.20;64.70
46159;DHT22;31888;44.512;26.104;2023-07-16T08:29:57;35.50;66.50
46159;DHT22;31888;44.512;26.104;2023-07-16T08:32:23;35.30;66.50
46159;DHT22;31888;44.512;26.104;2023-07-16T08:34:47;35.40;66.60
46159;DHT22;31888;44.512;26.104;2023-07-16T08:37:10;35.60;66.40
46159;DHT22;31888;44.512;26.104;2023-07-16T08:39:34;35.60;66.50
46159;DHT22;31888;44.512;26.104;2023-07-16T08:41:58;35.70;66.90
46159;DHT22;31888;44.512;26.104;2023-07-16T08:44:22;35.10;66.40
46159;DHT22;31888;44.512;26.104;2023-07-16T08:46:46;35.30;66.70
46159;DHT22;31888;44.512;26.104;2023-07-16T08:49:12;34.90;66.50
46159;DHT22;31888;44.512;26.104;2023-07-16T08:51:36;34.30;67.90
46159;DHT22;31888;44.512;26.104;2023-07-16T08:54:01;34.10;68.50
46159;DHT22;31888;44.512;26.104;2023-07-16T08:56:25;34.20;68.40
46159;DHT22;31888;44.512;26.104;2023-07-16T08:58:50;34.20;67.60
46159;DHT22;31888;44.512;26.104;2023-07-16T09:01:18;34.20;67.80
46159;DHT22;31888;44.512;26.104;2023-07-16T09:03:45;33.90;67.70
46159;DHT22;31888;44.512;26.104;2023-07-16T09:06:10;33.90;68.10
46159;DHT22;31888;44.512;26.104;2023-07-16T09:08:34;34.00;68.30
46159;DHT22;31888;44.512;26.104;2023-07-16T09:10:58;34.10;68.70
46159;DHT22;31888;44.512;26.104;2023-07-16T09:13:22;34.30;67.50
46159;DHT22;31888;44.512;26.104;2023-07-16T09:15:51;34.20;67.90
46159;DHT22;31888;44.512;26.104;2023-07-16T09:18:20;34.30;67.50
46159;DHT22;31888;44.512;26.104;2023-07-16T09:20:44;34.30;67.30
46159;DHT22;31888;44.512;26.104;2023-07-16T09:23:10;34.40;66.90
46159;DHT22;31888;44.512;26.104;2023-07-16T09:25:34;34.40;67.60
46159;DHT22;31888;44.512;26.104;2023-07-16T09:28:02;34.50;67.70
46159;DHT22;31888;44.512;26.104;2023-07-16T09:30:30;34.60;66.50
46159;DHT22;31888;44.512;26.104;2023-07-16T09:32:54;34.40;65.30
46159;DHT22;31888;44.512;26.104;2023-07-16T09:35:18;34.30;64.40
46159;DHT22;31888;44.512;26.104;2023-07-16T09:37:43;34.40;63.90
46159;DHT22;31888;44.512;26.104;2023-07-16T09:40:10;34.40;64.50
46159;DHT22;31888;44.512;26.104;2023-07-16T09:42:37;34.40;64.90
46159;DHT22;31888;44.512;26.104;2023-07-16T09:45:01;34.40;65.10
46159;DHT22;31888;44.512;26.104;2023-07-16T09:47:25;34.10;64.60
46159;DHT22;31888;44.512;26.104;2023-07-16T09:49:49;33.90;65.30
46159;DHT22;31888;44.512;26.104;2023-07-16T09:52:13;33.70;65.80
46159;DHT22;31888;44.512;26.104;2023-07-16T09:54:39;33.70;64.60
46159;DHT22;31888;44.512;26.104;2023-07-16T09:57:06;33.60;65.70
46159;DHT22;31888;44.512;26.104;2023-07-16T09:59:33;33.50;65.60
46159;DHT22;31888;44.512;26.104;2023-07-16T10:01:57;33.40;64.50
46159;DHT22;31888;44.512;26.104;2023-07-16T10:04:21;33.40;64.70
46159;DHT22;31888;44.512;26.104;2023-07-16T10:06:55;33.40;63.90
46159;DHT22;31888;44.512;26.104;2023-07-16T10:09:33;33.50;64.80
46159;DHT22;31888;44.512;26.104;2023-07-16T10:12:11;33.40;64.50
46159;DHT22;31888;44.512;26.104;2023-07-16T10:14:40;33.70;65.60
46159;DHT22;31888;44.512;26.104;2023-07-16T10:17:05;34.00;65.20
46159;DHT22;31888;44.512;26.104;2023-07-16T10:19:29;34.20;64.60
46159;DHT22;31888;44.512;26.104;2023-07-16T10:21:53;34.30;64.60
46159;DHT22;31888;44.512;26.104;2023-07-16T10:24:17;34.10;64.40
46159;DHT22;31888;44.512;26.104;2023-07-16T10:26:41;34.20;63.70
46159;DHT22;31888;44.512;26.104;2023-07-16T10:29:06;34.30;63.80
46159;DHT22;31888;44.512;26.104;2023-07-16T10:31:33;34.30;64.10
46159;DHT22;31888;44.512;26.104;2023-07-16T10:33:59;34.30;63.80
46159;DHT22;31888;44.512;26.104;2023-07-16T10:36:23;34.10;63.50
46159;DHT22;31888;44.512;26.104;2023-07-16T10:38:47;34.20;63.70
46159;DHT22;31888;44.512;26.104;2023-07-16T10:41:11;34.30;63.90
46159;DHT22;31888;44.512;26.104;2023-07-16T10:43:36;34.30;63.10
46159;DHT22;31888;44.512;26.104;2023-07-16T10:46:02;34.30;62.90
46159;DHT22;31888;44.512;26.104;2023-07-16T10:48:26;34.40;63.70
46159;DHT22;31888;44.512;26.104;2023-07-16T10:50:53;34.40;63.30
46159;DHT22;31888;44.512;26.104;2023-07-16T10:53:19;34.30;62.10
46159;DHT22;31888;44.512;26.104;2023-07-16T10:55:43;34.30;61.40
46159;DHT22;31888;44.512;26.104;2023-07-16T10:58:07;34.30;61.90
46159;DHT22;31888;44.512;26.104;2023-07-16T11:00:31;34.40;61.90
46159;DHT22;31888;44.512;26.104;2023-07-16T11:02:57;34.40;61.60
46159;DHT22;31888;44.512;26.104;2023-07-16T11:05:21;34.50;63.60
46159;DHT22;31888;44.512;26.104;2023-07-16T11:07:45;34.40;62.70
46159;DHT22;31888;44.512;26.104;2023-07-16T11:10:16;34.40;61.80
46159;DHT22;31888;44.512;26.104;2023-07-16T11:12:41;34.40;62.30
46159;DHT22;31888;44.512;26.104;2023-07-16T11:15:06;34.50;62.70
46159;DHT22;31888;44.512;26.104;2023-07-16T11:17:30;34.50;63.50
46159;DHT22;31888;44.512;26.104;2023-07-16T11:19:56;34.40;61.80
46159;DHT22;31888;44.512;26.104;2023-07-16T11:22:25;34.40;61.30
46159;DHT22;31888;44.512;26.104;2023-07-16T11:24:50;34.40;61.90
46159;DHT22;31888;44.512;26.104;2023-07-16T11:27:15;34.40;61.90
46159;DHT22;31888;44.512;26.104;2023-07-16T11:29:39;34.40;63.00
46159;DHT22;31888;44.512;26.104;2023-07-16T11:32:06;34.40;61.30
46159;DHT22;31888;44.512;26.104;2023-07-16T11:34:30;34.50;61.90
46159;DHT22;31888;44.512;26.104;2023-07-16T11:36:55;34.60;61.90
46159;DHT22;31888;44.512;26.104;2023-07-16T11:39:18;34.70;62.10
46159;DHT22;31888;44.512;26.104;2023-07-16T11:41:42;34.90;61.50
46159;DHT22;31888;44.512;26.104;2023-07-16T11:44:20;34.80;61.10
46159;DHT22;31888;44.512;26.104;2023-07-16T11:46:47;34.70;60.20
46159;DHT22;31888;44.512;26.104;2023-07-16T11:49:11;34.50;60.70
46159;DHT22;31888;44.512;26.104;2023-07-16T11:51:34;34.50;60.90
46159;DHT22;31888;44.512;26.104;2023-07-16T11:54:00;34.60;61.00
46159;DHT22;31888;44.512;26.104;2023-07-16T11:56:23;34.50;61.50
46159;DHT22;31888;44.512;26.104;2023-07-16T11:58:48;34.40;61.40
46159;DHT22;31888;44.512;26.104;2023-07-16T12:01:12;34.40;61.60
46159;DHT22;31888;44.512;26.104;2023-07-16T12:03:37;34.30;62.70
46159;DHT22;31888;44.512;26.104;2023-07-16T12:06:01;34.40;61.90
46159;DHT22;31888;44.512;26.104;2023-07-16T12:08:24;34.50;61.50
46159;DHT22;31888;44.512;26.104;2023-07-16T12:10:50;34.60;61.20
46159;DHT22;31888;44.512;26.104;2023-07-16T12:13:13;34.70;61.60
46159;DHT22;31888;44.512;26.104;2023-07-16T12:15:36;34.50;62.10
46159;DHT22;31888;44.512;26.104;2023-07-16T12:18:00;34.40;62.30
46159;DHT22;31888;44.512;26.104;2023-07-16T12:20:24;34.40;63.00
46159;DHT22;31888;44.512;26.104;2023-07-16T12:22:48;34.50;62.20
46159;DHT22;31888;44.512;26.104;2023-07-16T12:25:11;34.30;62.60
46159;DHT22;31888;44.512;26.104;2023-07-16T12:27:37;34.30;63.50
46159;DHT22;31888;44.512;26.104;2023-07-16T12:30:00;34.20;63.40
46159;DHT22;31888;44.512;26.104;2023-07-16T12:32:24;34.20;64.70
46159;DHT22;31888;44.512;26.104;2023-07-16T12:34:48;34.10;64.30
46159;DHT22;31888;44.512;26.104;2023-07-16T12:37:12;34.10;63.30
46159;DHT22;31888;44.512;26.104;2023-07-16T12:39:36;34.20;63.60
46159;DHT22;31888;44.512;26.104;2023-07-16T12:42:00;34.10;63.70
46159;DHT22;31888;44.512;26.104;2023-07-16T12:44:25;33.90;63.50
46159;DHT22;31888;44.512;26.104;2023-07-16T12:46:49;33.90;63.90
46159;DHT22;31888;44.512;26.104;2023-07-16T12:49:13;33.90;63.20
46159;DHT22;31888;44.512;26.104;2023-07-16T12:51:36;33.90;62.70
46159;DHT22;31888;44.512;26.104;2023-07-16T12:54:00;33.90;63.30
46159;DHT22;31888;44.512;26.104;2023-07-16T12:56:24;33.90;63.20
46159;DHT22;31888;44.512;26.104;2023-07-16T12:58:48;34.00;63.30
46159;DHT22;31888;44.512;26.104;2023-07-16T13:01:13;34.10;62.80
46159;DHT22;31888;44.512;26.104;2023-07-16T13:03:37;34.20;63.20
46159;DHT22;31888;44.512;26.104;2023-07-16T13:06:01;34.30;63.90
46159;DHT22;31888;44.512;26.104;2023-07-16T13:08:26;34.40;64.00
46159;DHT22;31888;44.512;26.104;2023-07-16T13:10:50;34.70;63.80
46159;DHT22;31888;44.512;26.104;2023-07-16T13:13:13;34.70;62.80
46159;DHT22;31888;44.512;26.104;2023-07-16T13:15:37;34.90;63.00
46159;DHT22;31888;44.512;26.104;2023-07-16T13:18:02;35.00;63.10
46159;DHT22;31888;44.512;26.104;2023-07-16T13:20:26;35.00;64.50
46159;DHT22;31888;44.512;26.104;2023-07-16T13:22:52;35.10;64.40
46159;DHT22;31888;44.512;26.104;2023-07-16T13:25:16;35.10;62.00
46159;DHT22;31888;44.512;26.104;2023-07-16T13:27:40;35.20;62.70
46159;DHT22;31888;44.512;26.104;2023-07-16T13:30:05;35.30;62.60
46159;DHT22;31888;44.512;26.104;2023-07-16T13:32:29;35.30;61.50
46159;DHT22;31888;44.512;26.104;2023-07-16T13:34:54;35.20;60.70
46159;DHT22;31888;44.512;26.104;2023-07-16T13:37:18;34.90;60.80
46159;DHT22;31888;44.512;26.104;2023-07-16T13:39:42;34.70;61.20
46159;DHT22;31888;44.512;26.104;2023-07-16T13:42:06;34.60;61.30
46159;DHT22;31888;44.512;26.104;2023-07-16T13:44:44;34.60;62.00
46159;DHT22;31888;44.512;26.104;2023-07-16T13:47:08;34.50;62.20
46159;DHT22;31888;44.512;26.104;2023-07-16T13:49:31;34.50;62.20
46159;DHT22;31888;44.512;26.104;2023-07-16T13:51:57;34.40;61.60
46159;DHT22;31888;44.512;26.104;2023-07-16T13:54:21;34.40;61.30
46159;DHT22;31888;44.512;26.104;2023-07-16T13:56:44;34.20;61.80
46159;DHT22;31888;44.512;26.104;2023-07-16T13:59:08;34.20;61.90
46159;DHT22;31888;44.512;26.104;2023-07-16T14:01:32;34.10;61.70
46159;DHT22;31888;44.512;26.104;2023-07-16T14:03:56;34.10;61.90
46159;DHT22;31888;44.512;26.104;2023-07-16T14:06:20;34.00;62.10
46159;DHT22;31888;44.512;26.104;2023-07-16T14:08:45;34.20;62.90
46159;DHT22;31888;44.512;26.104;2023-07-16T14:11:09;34.40;63.00
46159;DHT22;31888;44.512;26.104;2023-07-16T14:13:33;34.40;62.90
46159;DHT22;31888;44.512;26.104;2023-07-16T14:15:56;34.50;62.40
46159;DHT22;31888;44.512;26.104;2023-07-16T14:18:20;34.50;62.20
46159;DHT22;31888;44.512;26.104;2023-07-16T14:20:44;34.50;62.10
46159;DHT22;31888;44.512;26.104;2023-07-16T14:23:08;34.40;61.50
46159;DHT22;31888;44.512;26.104;2023-07-16T14:25:33;34.40;60.80
46159;DHT22;31888;44.512;26.104;2023-07-16T14:27:57;34.20;60.30
46159;DHT22;31888;44.512;26.104;2023-07-16T14:30:21;34.20;60.00
46159;DHT22;31888;44.512;26.104;2023-07-16T14:32:44;34.10;59.50
46159;DHT22;31888;44.512;26.104;2023-07-16T14:35:08;34.10;59.40
46159;DHT22;31888;44.512;26.104;2023-07-16T14:37:54;33.90;59.40
46159;DHT22;31888;44.512;26.104;2023-07-16T14:40:17;33.90;59.60
46159;DHT22;31888;44.512;26.104;2023-07-16T14:42:43;34.00;59.80
46159;DHT22;31888;44.512;26.104;2023-07-16T14:45:08;34.00;60.70
46159;DHT22;31888;44.512;26.104;2023-07-16T14:47:33;34.10;60.80
46159;DHT22;31888;44.512;26.104;2023-07-16T14:49:57;34.20;60.30
46159;DHT22;31888;44.512;26.104;2023-07-16T14:52:21;34.20;60.30
46159;DHT22;31888;44.512;26.104;2023-07-16T14:54:45;34.20;60.70
46159;DHT22;31888;44.512;26.104;2023-07-16T14:57:09;34.20;60.90
46159;DHT22;31888;44.512;26.104;2023-07-16T14:59:34;34.20;60.30